Time;durP1;ratioP1;P1;durP2;ratioP2;P2;SDS_P1;SDS_P2;PMS_P1;PMS_P2;Temp;Humidity;BMP_temperature;BMP_pressure;BME280_temperature;BME280_humidity;BME280_pressure;Samples;Min_cycle;Max_cycle;Signal;HPM_P1;HPM_P2
2021/03/20 00:01:50;;;;;;;;;;;-1.90;99.90;;;;;;5083668;28;20029;-61
2021/03/20 00:04:16;;;;;;;;;;;-1.50;99.90;;;;;;5084196;28;20019;-60
2021/03/20 00:06:44;;;;;;;;;;;-1.80;99.90;;;;;;5085043;28;20400;-61
2021/03/20 00:09:11;;;;;;;;;;;-1.80;99.90;;;;;;5082998;28;19912;-61
2021/03/20 00:11:41;;;;;;;;;;;-1.80;99.90;;;;;;5084322;28;19908;-61
2021/03/20 00:14:06;;;;;;;;;;;-1.90;99.90;;;;;;5066450;28;19939;-60
2021/03/20 00:16:32;;;;;;;;;;;-1.80;99.90;;;;;;5083320;28;19970;-61
2021/03/20 00:18:58;;;;;;;;;;;-1.80;99.90;;;;;;5083040;28;19912;-61
2021/03/20 00:21:23;;;;;;;;;;;-1.90;99.90;;;;;;5084347;28;20379;-61
2021/03/20 00:23:49;;;;;;;;;;;-1.80;99.90;;;;;;5064291;28;19916;-61
2021/03/20 00:26:14;;;;;;;;;;;-1.90;99.90;;;;;;5075636;28;19912;-61
2021/03/20 00:28:40;;;;;;;;;;;-1.70;99.90;;;;;;5083121;28;20439;-61
2021/03/20 00:31:07;;;;;;;;;;;-1.80;99.90;;;;;;5083786;28;19941;-61
2021/03/20 00:33:32;;;;;;;;;;;-1.90;99.90;;;;;;5084854;28;19912;-60
2021/03/20 00:35:58;;;;;;;;;;;-1.80;99.90;;;;;;5081875;28;19919;-61
2021/03/20 00:38:25;;;;;;;;;;;-1.70;99.90;;;;;;5084354;28;19912;-61
2021/03/20 00:40:51;;;;;;;;;;;-1.90;99.90;;;;;;5062484;28;19919;-61
2021/03/20 00:43:17;;;;;;;;;;;-1.90;99.90;;;;;;5083920;28;19912;-61
2021/03/20 00:45:42;;;;;;;;;;;-1.90;99.90;;;;;;5079299;28;19953;-60
2021/03/20 00:48:10;;;;;;;;;;;-1.90;99.90;;;;;;5083414;28;20391;-61
2021/03/20 00:50:35;;;;;;;;;;;-2.40;99.90;;;;;;5082090;28;20021;-60
2021/03/20 00:53:01;;;;;;;;;;;-1.90;99.90;;;;;;5083648;28;20374;-61
2021/03/20 00:55:27;;;;;;;;;;;-2.30;99.90;;;;;;5082005;28;19962;-62
2021/03/20 00:57:52;;;;;;;;;;;-2.10;99.90;;;;;;5063934;28;19947;-61
2021/03/20 01:00:20;;;;;;;;;;;-1.90;99.90;;;;;;5080138;28;19916;-61
2021/03/20 01:02:45;;;;;;;;;;;-2.30;99.90;;;;;;5084352;28;20305;-60
2021/03/20 01:05:12;;;;;;;;;;;-1.90;99.90;;;;;;5077824;28;20319;-60
2021/03/20 01:07:38;;;;;;;;;;;-2.20;99.90;;;;;;5083862;28;20374;-61
2021/03/20 01:10:08;;;;;;;;;;;-2.20;99.90;;;;;;5082179;28;19916;-60
2021/03/20 01:12:34;;;;;;;;;;;-2.20;99.90;;;;;;5062971;28;19923;-61
2021/03/20 01:15:00;;;;;;;;;;;-2.00;99.90;;;;;;5081810;28;19916;-61
2021/03/20 01:17:25;;;;;;;;;;;-1.80;99.90;;;;;;5082508;28;19965;-61
2021/03/20 01:19:51;;;;;;;;;;;-1.90;99.90;;;;;;5083291;28;19916;-62
2021/03/20 01:22:16;;;;;;;;;;;-1.90;99.90;;;;;;5084177;28;20554;-61
2021/03/20 01:24:42;;;;;;;;;;;-1.80;99.90;;;;;;5081943;28;19995;-61
2021/03/20 01:27:07;;;;;;;;;;;-1.70;99.90;;;;;;5084066;28;20524;-61
2021/03/20 01:29:33;;;;;;;;;;;-1.70;99.90;;;;;;5083381;28;19962;-61
2021/03/20 01:31:58;;;;;;;;;;;-1.90;99.90;;;;;;5081307;28;19930;-62
2021/03/20 01:34:24;;;;;;;;;;;-1.70;99.90;;;;;;5081594;28;19912;-63
2021/03/20 01:36:49;;;;;;;;;;;-1.70;99.90;;;;;;5079633;28;20335;-62
2021/03/20 01:39:14;;;;;;;;;;;-1.70;99.90;;;;;;5082140;28;19999;-61
2021/03/20 01:41:41;;;;;;;;;;;-1.70;99.90;;;;;;5081343;28;20540;-61
2021/03/20 01:44:06;;;;;;;;;;;-1.80;99.90;;;;;;5082381;28;19920;-62
2021/03/20 01:46:50;;;;;;;;;;;-1.70;99.90;;;;;;5049505;28;20264;-62
2021/03/20 01:49:31;;;;;;;;;;;-0.80;99.90;;;;;;5060899;28;19923;-62
2021/03/20 01:52:02;;;;;;;;;;;-1.80;99.90;;;;;;5082041;28;19916;-61
2021/03/20 01:54:48;;;;;;;;;;;-1.60;99.90;;;;;;5082897;28;19912;-61
2021/03/20 01:57:15;;;;;;;;;;;-1.50;99.90;;;;;;5079625;28;20022;-62
2021/03/20 01:59:41;;;;;;;;;;;-1.60;99.90;;;;;;5082083;28;19924;-61
2021/03/20 02:02:06;;;;;;;;;;;-1.40;99.90;;;;;;5083850;28;19912;-61
2021/03/20 02:04:32;;;;;;;;;;;-1.40;99.90;;;;;;5081850;28;20482;-61
2021/03/20 02:06:57;;;;;;;;;;;-1.40;99.90;;;;;;5082999;28;19911;-61
2021/03/20 02:09:22;;;;;;;;;;;-1.40;99.90;;;;;;5081705;28;20421;-60
2021/03/20 02:12:02;;;;;;;;;;;-1.30;99.90;;;;;;5084043;28;19911;-61
2021/03/20 02:14:39;;;;;;;;;;;-1.30;99.90;;;;;;5081654;28;19918;-61
2021/03/20 02:17:11;;;;;;;;;;;-1.50;99.90;;;;;;5075411;28;19973;-61
2021/03/20 02:19:36;;;;;;;;;;;-1.20;99.90;;;;;;5066822;28;20004;-62
2021/03/20 02:22:05;;;;;;;;;;;-1.40;99.90;;;;;;5081810;28;20413;-62
2021/03/20 02:24:30;;;;;;;;;;;-1.40;99.90;;;;;;5047408;28;19916;-61
2021/03/20 02:27:18;;;;;;;;;;;-1.30;99.90;;;;;;5081906;28;19919;-60
2021/03/20 02:30:05;;;;;;;;;;;-1.40;99.90;;;;;;5079020;28;19935;-60
2021/03/20 02:32:36;;;;;;;;;;;-1.50;99.90;;;;;;5081857;28;20446;-61
2021/03/20 02:35:07;;;;;;;;;;;-1.70;99.90;;;;;;5082131;28;19931;-60
2021/03/20 02:37:37;;;;;;;;;;;-1.20;99.90;;;;;;5084891;28;19913;-60
2021/03/20 02:40:17;;;;;;;;;;;-1.50;99.90;;;;;;5068526;28;19915;-61
2021/03/20 02:42:53;;;;;;;;;;;-1.40;99.90;;;;;;5065362;28;20206;-61
2021/03/20 02:45:27;;;;;;;;;;;-1.50;99.90;;;;;;5084801;28;19916;-61
2021/03/20 02:48:03;;;;;;;;;;;-1.70;99.90;;;;;;5081923;28;19912;-61
2021/03/20 02:50:38;;;;;;;;;;;-1.60;99.90;;;;;;5084999;28;19923;-61
2021/03/20 02:53:03;;;;;;;;;;;-1.60;99.90;;;;;;5085998;28;19964;-61
2021/03/20 02:55:34;;;;;;;;;;;-1.50;99.90;;;;;;5078707;28;20296;-62
2021/03/20 02:58:03;;;;;;;;;;;-1.60;99.90;;;;;;5060091;28;19935;-61
2021/03/20 03:00:34;;;;;;;;;;;-1.20;99.90;;;;;;5085308;28;20116;-61
2021/03/20 03:03:01;;;;;;;;;;;-1.50;99.90;;;;;;5089087;28;20766;-61
2021/03/20 03:05:37;;;;;;;;;;;-1.50;99.90;;;;;;5087542;28;20271;-61
2021/03/20 03:08:03;;;;;;;;;;;-1.50;99.90;;;;;;5082315;28;19907;-61
2021/03/20 03:10:34;;;;;;;;;;;-1.50;99.90;;;;;;5086626;28;20248;-61
2021/03/20 03:13:08;;;;;;;;;;;-1.60;99.90;;;;;;5088846;28;19998;-62
2021/03/20 03:15:41;;;;;;;;;;;-1.50;99.90;;;;;;5088814;28;19957;-62
2021/03/20 03:18:16;;;;;;;;;;;-1.60;99.90;;;;;;5085390;28;19916;-62
2021/03/20 03:20:48;;;;;;;;;;;-1.50;99.90;;;;;;5086157;28;19912;-62
2021/03/20 03:23:22;;;;;;;;;;;-1.40;99.90;;;;;;5087793;28;19999;-62
2021/03/20 03:25:50;;;;;;;;;;;-1.60;99.90;;;;;;5086554;28;20618;-62
2021/03/20 03:28:19;;;;;;;;;;;-1.40;99.90;;;;;;5070116;28;19923;-62
2021/03/20 03:30:44;;;;;;;;;;;-1.40;99.90;;;;;;5086230;28;19957;-61
2021/03/20 03:33:23;;;;;;;;;;;-1.40;99.90;;;;;;5088261;28;19915;-61
2021/03/20 03:35:56;;;;;;;;;;;-1.50;99.90;;;;;;5069227;28;19912;-62
2021/03/20 03:38:28;;;;;;;;;;;-1.50;99.90;;;;;;5069511;28;19959;-61
2021/03/20 03:41:04;;;;;;;;;;;-1.60;99.90;;;;;;5087399;28;19995;-61
2021/03/20 03:43:30;;;;;;;;;;;-1.40;99.90;;;;;;5086306;28;19912;-61
2021/03/20 03:45:55;;;;;;;;;;;-1.50;99.90;;;;;;5082548;28;20573;-61
2021/03/20 03:48:22;;;;;;;;;;;-1.30;99.90;;;;;;5086730;28;19916;-61
2021/03/20 03:50:49;;;;;;;;;;;-1.30;99.90;;;;;;5070410;28;19955;-60
2021/03/20 03:53:16;;;;;;;;;;;-1.40;99.90;;;;;;5069857;28;20540;-61
2021/03/20 03:55:42;;;;;;;;;;;-1.40;99.90;;;;;;5083833;28;19961;-62
2021/03/20 03:58:07;;;;;;;;;;;-1.40;99.90;;;;;;5086493;28;19919;-61
2021/03/20 04:00:42;;;;;;;;;;;-1.30;99.90;;;;;;5087586;28;19911;-62
2021/03/20 04:03:30;;;;;;;;;;;-1.60;99.90;;;;;;5067437;28;19961;-62
2021/03/20 04:06:14;;;;;;;;;;;-1.10;99.90;;;;;;5085281;28;19943;-61
2021/03/20 04:08:59;;;;;;;;;;;-1.80;99.90;;;;;;5081181;28;19912;-61
2021/03/20 04:11:28;;;;;;;;;;;-0.90;99.90;;;;;;5077614;28;19915;-62
2021/03/20 04:14:04;;;;;;;;;;;-1.20;99.90;;;;;;5084946;28;19919;-61
2021/03/20 04:16:50;;;;;;;;;;;-1.50;99.90;;;;;;5082754;28;19919;-61
2021/03/20 04:19:27;;;;;;;;;;;-1.50;99.90;;;;;;5083314;28;19916;-62
2021/03/20 04:22:11;;;;;;;;;;;-1.40;99.90;;;;;;5083811;28;19969;-61
2021/03/20 04:24:40;;;;;;;;;;;-1.50;99.90;;;;;;5084481;28;19991;-61
2021/03/20 04:27:16;;;;;;;;;;;-1.60;99.90;;;;;;5064448;28;19919;-61
2021/03/20 04:29:49;;;;;;;;;;;-1.50;99.90;;;;;;5085202;28;19923;-61
2021/03/20 04:32:17;;;;;;;;;;;-1.40;99.90;;;;;;5082776;28;19915;-61
2021/03/20 04:34:43;;;;;;;;;;;-1.50;99.90;;;;;;5084579;28;20318;-61
2021/03/20 04:37:17;;;;;;;;;;;-1.50;99.90;;;;;;5087987;28;19968;-60
2021/03/20 04:39:44;;;;;;;;;;;-1.80;99.90;;;;;;5076597;28;19908;-61
2021/03/20 04:42:10;;;;;;;;;;;-1.40;99.90;;;;;;5063571;28;19908;-61
2021/03/20 04:44:37;;;;;;;;;;;-1.40;99.90;;;;;;5083315;28;19913;-61
2021/03/20 04:47:12;;;;;;;;;;;-1.20;99.90;;;;;;5082557;28;19911;-61
2021/03/20 04:49:44;;;;;;;;;;;-1.60;99.90;;;;;;5080990;28;19908;-61
2021/03/20 04:52:10;;;;;;;;;;;-1.50;99.90;;;;;;5082783;28;20264;-60
2021/03/20 04:54:35;;;;;;;;;;;-1.50;99.90;;;;;;5079510;28;19912;-61
2021/03/20 04:57:14;;;;;;;;;;;-1.40;99.90;;;;;;5080897;28;20443;-61
2021/03/20 04:59:40;;;;;;;;;;;-1.60;99.90;;;;;;5084179;28;19912;-61
2021/03/20 05:02:11;;;;;;;;;;;-1.30;99.90;;;;;;5083083;28;19912;-61
2021/03/20 05:04:39;;;;;;;;;;;-1.30;99.90;;;;;;5082624;28;19919;-61
2021/03/20 05:07:05;;;;;;;;;;;-1.40;99.90;;;;;;5081580;28;19908;-60
2021/03/20 05:09:31;;;;;;;;;;;-1.50;99.90;;;;;;5084728;28;19964;-61
2021/03/20 05:11:58;;;;;;;;;;;-1.60;99.90;;;;;;5066401;28;19912;-60
2021/03/20 05:14:30;;;;;;;;;;;-1.50;99.90;;;;;;5077876;28;19955;-61
2021/03/20 05:16:57;;;;;;;;;;;-1.80;99.90;;;;;;5081943;28;19908;-60
2021/03/20 05:19:25;;;;;;;;;;;-1.60;99.90;;;;;;5082719;28;19911;-61
2021/03/20 05:21:51;;;;;;;;;;;-1.90;99.90;;;;;;5079700;28;19919;-60
2021/03/20 05:24:21;;;;;;;;;;;-1.90;99.90;;;;;;5083537;28;19911;-60
2021/03/20 05:26:47;;;;;;;;;;;-1.70;99.90;;;;;;5081110;28;19943;-60
2021/03/20 05:29:13;;;;;;;;;;;-1.70;99.90;;;;;;5083324;28;20604;-61
2021/03/20 05:31:38;;;;;;;;;;;-1.70;99.90;;;;;;5079177;28;20011;-60
2021/03/20 05:34:22;;;;;;;;;;;-1.80;99.90;;;;;;5082432;28;19916;-60
2021/03/20 05:36:48;;;;;;;;;;;-2.20;99.90;;;;;;5082368;28;20224;-60
2021/03/20 05:39:14;;;;;;;;;;;-1.90;99.90;;;;;;5081814;28;19955;-60
2021/03/20 05:41:43;;;;;;;;;;;-2.00;99.90;;;;;;5081633;28;20006;-60
2021/03/20 05:44:26;;;;;;;;;;;-2.20;99.90;;;;;;5079840;28;19912;-60
2021/03/20 05:47:16;;;;;;;;;;;-2.10;99.90;;;;;;5076360;28;20438;-60
2021/03/20 05:49:47;;;;;;;;;;;-2.10;99.90;;;;;;5060896;28;20774;-60
2021/03/20 05:52:18;;;;;;;;;;;-2.30;99.90;;;;;;5082106;28;19912;-60
2021/03/20 05:54:51;;;;;;;;;;;-2.00;99.90;;;;;;5079672;28;19957;-60
2021/03/20 05:57:23;;;;;;;;;;;-2.20;99.90;;;;;;5083160;28;19965;-60
2021/03/20 05:59:48;;;;;;;;;;;-2.00;99.90;;;;;;5080627;28;19919;-60
2021/03/20 06:02:14;;;;;;;;;;;-1.90;99.90;;;;;;5089856;28;19912;-60
2021/03/20 06:04:40;;;;;;;;;;;-1.80;99.90;;;;;;5086541;28;20173;-60
2021/03/20 06:07:15;;;;;;;;;;;-1.80;99.90;;;;;;5087451;28;19911;-61
2021/03/20 06:09:55;;;;;;;;;;;-1.80;99.90;;;;;;5083306;28;20400;-61
2021/03/20 06:12:44;;;;;;;;;;;-2.00;99.90;;;;;;5085963;28;19961;-61
2021/03/20 06:15:14;;;;;;;;;;;-2.10;99.90;;;;;;5086227;28;19911;-61
2021/03/20 06:17:58;;;;;;;;;;;-2.00;99.90;;;;;;5075473;28;19912;-61
2021/03/20 06:20:35;;;;;;;;;;;-2.10;99.90;;;;;;5086009;28;20320;-61
2021/03/20 06:23:01;;;;;;;;;;;-1.80;99.90;;;;;;5090215;28;19919;-61
2021/03/20 06:25:41;;;;;;;;;;;-1.70;99.90;;;;;;5092716;28;19912;-61
2021/03/20 06:28:08;;;;;;;;;;;-1.90;99.90;;;;;;5080032;28;19951;-61
2021/03/20 06:30:50;;;;;;;;;;;-1.90;99.90;;;;;;5095726;28;20290;-60
2021/03/20 06:33:33;;;;;;;;;;;-1.90;99.90;;;;;;5092604;28;20362;-61
2021/03/20 06:36:04;;;;;;;;;;;-1.80;99.90;;;;;;5087372;28;19919;-61
2021/03/20 06:38:37;;;;;;;;;;;-1.50;99.90;;;;;;5067530;28;19916;-61
2021/03/20 06:41:05;;;;;;;;;;;-1.70;99.90;;;;;;5085333;28;20010;-61
2021/03/20 06:43:33;;;;;;;;;;;-1.50;99.90;;;;;;5071102;28;19998;-61
2021/03/20 06:45:59;;;;;;;;;;;-1.30;99.90;;;;;;5090165;28;19965;-61
2021/03/20 06:48:28;;;;;;;;;;;-1.30;99.90;;;;;;5084449;28;19916;-62
2021/03/20 06:50:55;;;;;;;;;;;-1.40;99.90;;;;;;5085763;28;19916;-61
2021/03/20 06:53:37;;;;;;;;;;;-1.40;99.90;;;;;;5072463;28;20418;-61
2021/03/20 06:56:05;;;;;;;;;;;-1.40;99.90;;;;;;5076695;28;19966;-61
2021/03/20 06:58:40;;;;;;;;;;;-1.60;99.90;;;;;;5084560;28;20342;-61
2021/03/20 07:01:12;;;;;;;;;;;-1.30;99.90;;;;;;5083297;28;20445;-61
2021/03/20 07:03:56;;;;;;;;;;;-1.20;99.90;;;;;;5066492;28;19991;-62
2021/03/20 07:06:30;;;;;;;;;;;-1.10;99.90;;;;;;5084520;28;20024;-63
2021/03/20 07:08:57;;;;;;;;;;;-1.40;99.90;;;;;;5085937;28;19912;-64
2021/03/20 07:11:55;;;;;;;;;;;-1.20;99.90;;;;;;5085295;28;19911;-64
2021/03/20 07:14:39;;;;;;;;;;;-1.30;99.90;;;;;;5062609;28;20358;-63
2021/03/20 07:17:06;;;;;;;;;;;-1.30;99.90;;;;;;5085077;28;20007;-65
2021/03/20 07:19:32;;;;;;;;;;;-1.40;99.90;;;;;;5086172;28;19911;-62
2021/03/20 07:21:57;;;;;;;;;;;-1.30;99.90;;;;;;5084073;28;19908;-59
2021/03/20 07:24:43;;;;;;;;;;;-1.40;99.90;;;;;;5082858;28;19954;-64
2021/03/20 07:27:14;;;;;;;;;;;-1.30;99.90;;;;;;5080367;28;19922;-63
2021/03/20 07:29:48;;;;;;;;;;;-1.40;99.90;;;;;;5084138;28;19913;-63
2021/03/20 07:32:15;;;;;;;;;;;-1.30;99.90;;;;;;5080908;28;19907;-61
2021/03/20 07:34:41;;;;;;;;;;;-1.30;99.90;;;;;;5085283;28;20388;-63
2021/03/20 07:37:11;;;;;;;;;;;-1.10;99.90;;;;;;5084827;28;19931;-61
2021/03/20 07:39:39;;;;;;;;;;;-1.10;99.90;;;;;;5091950;28;20481;-63
2021/03/20 07:42:08;;;;;;;;;;;-1.50;99.90;;;;;;5085622;28;19908;-63
2021/03/20 07:44:46;;;;;;;;;;;-1.40;99.90;;;;;;5082720;28;20464;-63
2021/03/20 07:47:13;;;;;;;;;;;-1.40;99.90;;;;;;5081094;28;20627;-64
2021/03/20 07:49:38;;;;;;;;;;;-1.50;99.90;;;;;;5084211;28;19912;-63
2021/03/20 07:52:05;;;;;;;;;;;-1.50;99.90;;;;;;5085882;28;19916;-62
2021/03/20 07:54:33;;;;;;;;;;;-1.50;99.90;;;;;;5088509;28;20325;-62
2021/03/20 07:57:15;;;;;;;;;;;-1.30;99.90;;;;;;5082917;28;19912;-63
2021/03/20 07:59:43;;;;;;;;;;;-1.40;99.90;;;;;;5084221;28;19919;-65
2021/03/20 08:02:11;;;;;;;;;;;-1.10;99.90;;;;;;5084133;28;19907;-63
2021/03/20 08:04:48;;;;;;;;;;;-1.20;99.90;;;;;;5085363;28;19918;-63
2021/03/20 08:07:49;;;;;;;;;;;-1.10;99.90;;;;;;5089583;28;19989;-64
2021/03/20 08:10:21;;;;;;;;;;;-0.80;99.90;;;;;;5077661;28;20462;-64
2021/03/20 08:13:00;;;;;;;;;;;-0.40;99.90;;;;;;5084992;28;19923;-63
2021/03/20 08:15:29;;;;;;;;;;;-0.60;99.90;;;;;;5085867;28;20033;-62
2021/03/20 08:17:56;;;;;;;;;;;-0.40;99.90;;;;;;5082933;28;19912;-63
2021/03/20 08:20:21;;;;;;;;;;;-0.40;99.90;;;;;;5082960;28;19908;-64
2021/03/20 08:22:56;;;;;;;;;;;-0.30;99.90;;;;;;5095000;28;19922;-62
2021/03/20 08:25:32;;;;;;;;;;;-0.40;99.90;;;;;;5065636;28;19920;-63
2021/03/20 08:28:18;;;;;;;;;;;-0.30;99.90;;;;;;5091583;28;20063;-62
2021/03/20 08:30:50;;;;;;;;;;;0.00;99.90;;;;;;5089271;28;20434;-61
2021/03/20 08:33:24;;;;;;;;;;;-0.20;99.90;;;;;;5086438;28;19912;-61
2021/03/20 08:35:49;;;;;;;;;;;-0.10;99.90;;;;;;5082517;28;19907;-63
2021/03/20 08:38:22;;;;;;;;;;;0.00;99.90;;;;;;5084835;28;19934;-62
2021/03/20 08:40:53;;;;;;;;;;;0.20;99.90;;;;;;5062003;28;20275;-62
2021/03/20 08:43:37;;;;;;;;;;;0.50;99.90;;;;;;5082306;28;19936;-64
2021/03/20 08:46:21;;;;;;;;;;;0.20;99.90;;;;;;5082310;28;19953;-62
2021/03/20 08:49:05;;;;;;;;;;;0.20;99.90;;;;;;5076830;28;20159;-63
2021/03/20 08:51:40;;;;;;;;;;;0.30;99.90;;;;;;5064929;28;19920;-64
2021/03/20 08:54:08;;;;;;;;;;;0.30;99.90;;;;;;5082252;28;19999;-64
2021/03/20 08:56:34;;;;;;;;;;;0.20;99.90;;;;;;5079522;28;19911;-64
2021/03/20 08:59:02;;;;;;;;;;;0.30;99.90;;;;;;5083102;28;20393;-62
2021/03/20 09:01:37;;;;;;;;;;;0.10;99.90;;;;;;5081749;28;19965;-63
2021/03/20 09:04:04;;;;;;;;;;;0.00;99.90;;;;;;5079436;28;19912;-63
2021/03/20 09:06:35;;;;;;;;;;;0.20;99.90;;;;;;5065258;28;19978;-64
2021/03/20 09:09:03;;;;;;;;;;;0.10;99.90;;;;;;5082706;28;19918;-65
2021/03/20 09:11:38;;;;;;;;;;;0.20;99.90;;;;;;5082840;28;20385;-65
2021/03/20 09:14:06;;;;;;;;;;;0.10;99.90;;;;;;5065347;28;20315;-64
2021/03/20 09:16:39;;;;;;;;;;;0.30;99.90;;;;;;5083577;28;19995;-65
2021/03/20 09:19:07;;;;;;;;;;;-0.20;99.90;;;;;;5081989;28;19919;-64
2021/03/20 09:21:32;;;;;;;;;;;0.20;99.90;;;;;;5084093;28;19923;-62
2021/03/20 09:24:04;;;;;;;;;;;0.30;99.90;;;;;;5083781;28;19916;-63
2021/03/20 09:26:38;;;;;;;;;;;0.30;99.90;;;;;;5064161;28;20796;-63
2021/03/20 09:29:06;;;;;;;;;;;0.40;99.90;;;;;;5055430;28;19923;-65
2021/03/20 09:31:32;;;;;;;;;;;0.80;99.90;;;;;;5083950;28;19923;-62
2021/03/20 09:33:58;;;;;;;;;;;0.90;99.90;;;;;;5077546;28;19912;-63
2021/03/20 09:36:33;;;;;;;;;;;1.10;99.90;;;;;;5083035;28;20356;-62
2021/03/20 09:38:59;;;;;;;;;;;0.70;99.90;;;;;;5084668;28;20038;-61
2021/03/20 09:41:27;;;;;;;;;;;0.90;99.90;;;;;;5081210;28;20027;-62
2021/03/20 09:43:59;;;;;;;;;;;0.90;99.90;;;;;;5085589;28;20517;-62
2021/03/20 09:46:40;;;;;;;;;;;1.10;99.90;;;;;;5077422;28;19966;-63
2021/03/20 09:49:08;;;;;;;;;;;1.00;99.90;;;;;;5086249;28;19965;-63
2021/03/20 09:51:49;;;;;;;;;;;1.00;99.90;;;;;;5091783;28;19919;-62
2021/03/20 09:54:33;;;;;;;;;;;1.10;99.90;;;;;;5088125;28;19912;-63
2021/03/20 09:57:11;;;;;;;;;;;1.50;99.90;;;;;;5090843;28;20308;-61
2021/03/20 09:59:36;;;;;;;;;;;1.80;99.90;;;;;;5066228;28;19911;-63
2021/03/20 10:02:11;;;;;;;;;;;3.70;99.90;;;;;;5085810;28;19911;-63
2021/03/20 10:04:57;;;;;;;;;;;4.80;99.90;;;;;;5084759;28;20549;-62
2021/03/20 10:07:25;;;;;;;;;;;6.10;96.40;;;;;;5085014;28;19908;-63
2021/03/20 10:10:00;;;;;;;;;;;7.90;90.60;;;;;;5080536;28;19919;-63
2021/03/20 10:12:30;;;;;;;;;;;8.30;86.80;;;;;;5087478;28;19972;-62
2021/03/20 10:14:58;;;;;;;;;;;8.60;87.40;;;;;;5084918;28;19958;-62
2021/03/20 10:17:27;;;;;;;;;;;9.30;76.60;;;;;;5082766;28;19911;-64
2021/03/20 10:20:11;;;;;;;;;;;8.80;82.60;;;;;;5088108;28;19912;-63
2021/03/20 10:22:45;;;;;;;;;;;7.90;79.30;;;;;;5066144;28;19965;-63
2021/03/20 10:25:13;;;;;;;;;;;5.80;83.00;;;;;;5084869;28;19911;-62
2021/03/20 10:27:40;;;;;;;;;;;4.60;85.50;;;;;;5086447;28;19912;-63
2021/03/20 10:30:11;;;;;;;;;;;3.70;84.00;;;;;;5084481;28;20015;-62
2021/03/20 10:32:37;;;;;;;;;;;2.60;82.60;;;;;;5085797;28;20524;-62
2021/03/20 10:35:05;;;;;;;;;;;2.60;89.90;;;;;;5089298;28;19919;-63
2021/03/20 10:37:33;;;;;;;;;;;2.40;89.80;;;;;;5083145;28;19923;-63
2021/03/20 10:40:09;;;;;;;;;;;2.40;91.70;;;;;;5081679;28;19912;-62
2021/03/20 10:42:37;;;;;;;;;;;2.50;90.10;;;;;;5083891;28;19937;-61
2021/03/20 10:45:14;;;;;;;;;;;2.30;92.60;;;;;;5084680;28;20294;-62
2021/03/20 10:47:39;;;;;;;;;;;2.10;91.60;;;;;;5085456;28;19912;-61
2021/03/20 10:50:28;;;;;;;;;;;3.00;94.30;;;;;;5066307;28;20076;-61
2021/03/20 10:52:58;;;;;;;;;;;4.20;91.90;;;;;;5075929;28;19912;-63
2021/03/20 10:55:25;;;;;;;;;;;5.40;91.50;;;;;;5084502;28;19908;-61
2021/03/20 10:57:53;;;;;;;;;;;5.10;90.80;;;;;;5083033;28;19912;-62
2021/03/20 11:00:24;;;;;;;;;;;6.40;90.30;;;;;;5084260;28;20405;-61
2021/03/20 11:02:50;;;;;;;;;;;6.70;83.60;;;;;;5067084;28;19965;-62
2021/03/20 11:05:22;;;;;;;;;;;7.20;81.40;;;;;;5082362;28;19908;-61
2021/03/20 11:07:53;;;;;;;;;;;8.30;73.60;;;;;;5085597;28;19955;-61
2021/03/20 11:10:32;;;;;;;;;;;7.90;75.40;;;;;;5084366;28;20019;-62
2021/03/20 11:13:01;;;;;;;;;;;9.10;78.30;;;;;;5079854;28;19912;-65
2021/03/20 11:15:28;;;;;;;;;;;9.40;77.60;;;;;;5063427;28;19915;-63
2021/03/20 11:17:57;;;;;;;;;;;8.30;78.00;;;;;;5081992;28;20318;-63
2021/03/20 11:20:28;;;;;;;;;;;6.80;78.10;;;;;;5084279;28;19912;-64
2021/03/20 11:22:54;;;;;;;;;;;6.30;75.60;;;;;;5084145;28;20283;-65
2021/03/20 11:25:29;;;;;;;;;;;5.40;77.60;;;;;;5087698;28;19912;-71
2021/03/20 11:27:59;;;;;;;;;;;4.20;75.20;;;;;;5086175;28;19962;-67
2021/03/20 11:30:27;;;;;;;;;;;4.10;73.20;;;;;;5083275;28;19919;-62
2021/03/20 11:32:57;;;;;;;;;;;4.30;78.60;;;;;;5062271;28;19916;-62
2021/03/20 11:35:39;;;;;;;;;;;3.80;80.10;;;;;;5087573;28;19919;-65
2021/03/20 11:38:05;;;;;;;;;;;3.60;81.30;;;;;;5088514;28;19912;-62
2021/03/20 11:40:32;;;;;;;;;;;3.30;90.20;;;;;;5088507;28;20484;-63
2021/03/20 11:43:00;;;;;;;;;;;3.20;90.70;;;;;;5082473;28;19912;-64
2021/03/20 11:45:34;;;;;;;;;;;3.00;91.50;;;;;;5065927;28;19920;-64
2021/03/20 11:48:05;;;;;;;;;;;2.50;90.80;;;;;;5083641;28;20547;-61
2021/03/20 11:50:33;;;;;;;;;;;3.10;92.20;;;;;;5085113;28;19931;-63
2021/03/20 11:53:19;;;;;;;;;;;3.40;92.70;;;;;;5081697;28;19989;-62
2021/03/20 11:55:44;;;;;;;;;;;3.70;86.80;;;;;;5073046;28;19907;-62
2021/03/20 11:58:28;;;;;;;;;;;3.90;86.50;;;;;;5084433;28;19976;-63
2021/03/20 12:00:54;;;;;;;;;;;5.80;82.80;;;;;;5081470;28;19930;-64
2021/03/20 12:03:20;;;;;;;;;;;7.60;84.10;;;;;;5074474;28;19970;-63
2021/03/20 12:05:45;;;;;;;;;;;9.20;76.00;;;;;;5080879;28;19912;-63
2021/03/20 12:08:23;;;;;;;;;;;9.60;71.60;;;;;;5089253;28;20398;-63
2021/03/20 12:11:09;;;;;;;;;;;9.70;66.10;;;;;;5084164;28;19930;-62
2021/03/20 12:13:43;;;;;;;;;;;8.60;81.10;;;;;;5082429;28;20015;-62
2021/03/20 12:16:30;;;;;;;;;;;7.30;71.10;;;;;;5080565;28;20255;-62
2021/03/20 12:19:04;;;;;;;;;;;6.70;73.60;;;;;;5074544;28;19972;-63
2021/03/20 12:21:29;;;;;;;;;;;5.60;75.90;;;;;;5068963;28;19919;-63
2021/03/20 12:23:56;;;;;;;;;;;5.40;79.80;;;;;;5085860;28;19912;-63
2021/03/20 12:26:22;;;;;;;;;;;;;;;;;;5079530;28;19911;-63
2021/03/20 12:28:48;;;;;;;;;;;;;;;;;;5086149;28;19998;-62
2021/03/20 12:31:14;;;;;;;;;;;3.90;91.50;;;;;;5086128;28;19938;-62
2021/03/20 12:34:02;;;;;;;;;;;5.00;90.30;;;;;;5091948;28;19918;-63
2021/03/20 12:36:28;;;;;;;;;;;;;;;;;;5040147;28;20348;-61
2021/03/20 12:38:54;;;;;;;;;;;;;;;;;;5080474;28;19965;-61
2021/03/20 12:41:21;;;;;;;;;;;4.50;91.50;;;;;;5083341;28;19912;-61
2021/03/20 12:44:07;;;;;;;;;;;4.60;89.90;;;;;;5081608;28;19916;-61
2021/03/20 12:46:33;;;;;;;;;;;4.80;88.10;;;;;;5062469;28;20662;-62
2021/03/20 12:48:59;;;;;;;;;;;5.10;91.30;;;;;;5079855;28;19957;-61
2021/03/20 12:51:25;;;;;;;;;;;5.10;90.40;;;;;;5075212;28;19924;-62
2021/03/20 12:53:50;;;;;;;;;;;4.80;88.50;;;;;;5064089;28;19972;-62
2021/03/20 12:56:16;;;;;;;;;;;5.00;90.10;;;;;;5079372;28;19915;-63
2021/03/20 12:58:42;;;;;;;;;;;5.40;86.00;;;;;;5082498;28;20015;-63
2021/03/20 13:01:07;;;;;;;;;;;5.40;84.90;;;;;;5077966;28;19908;-62
2021/03/20 13:03:36;;;;;;;;;;;6.60;85.10;;;;;;5081581;28;19911;-62
2021/03/20 13:06:02;;;;;;;;;;;7.00;81.40;;;;;;5062450;28;19911;-63
2021/03/20 13:08:27;;;;;;;;;;;7.30;77.30;;;;;;5082464;28;19912;-63
2021/03/20 13:10:53;;;;;;;;;;;8.70;74.30;;;;;;5079564;28;19916;-63
2021/03/20 13:13:18;;;;;;;;;;;8.60;69.50;;;;;;5064232;28;19912;-62
2021/03/20 13:15:44;;;;;;;;;;;8.60;71.80;;;;;;5064178;28;19961;-63
2021/03/20 13:18:10;;;;;;;;;;;9.10;67.60;;;;;;5077573;28;19915;-63
2021/03/20 13:20:36;;;;;;;;;;;8.40;68.80;;;;;;5079622;28;19912;-62
2021/03/20 13:23:02;;;;;;;;;;;7.60;67.50;;;;;;5075624;28;20405;-63
2021/03/20 13:25:32;;;;;;;;;;;6.80;70.20;;;;;;5076748;28;19947;-64
2021/03/20 13:27:57;;;;;;;;;;;6.10;66.00;;;;;;5070264;28;19911;-64
2021/03/20 13:30:24;;;;;;;;;;;6.00;71.00;;;;;;5087796;28;19919;-63
2021/03/20 13:32:51;;;;;;;;;;;6.00;67.70;;;;;;5084822;28;20386;-64
2021/03/20 13:35:17;;;;;;;;;;;6.50;68.10;;;;;;5081691;28;19953;-64
2021/03/20 13:37:42;;;;;;;;;;;5.70;67.20;;;;;;5083896;28;19911;-64
2021/03/20 13:40:08;;;;;;;;;;;5.30;70.60;;;;;;5082289;28;19915;-64
2021/03/20 13:42:35;;;;;;;;;;;5.00;73.80;;;;;;5085298;28;19919;-64
2021/03/20 13:45:01;;;;;;;;;;;5.00;74.40;;;;;;5082545;28;19912;-64
2021/03/20 13:47:26;;;;;;;;;;;4.60;71.60;;;;;;5083050;28;19915;-65
2021/03/20 13:49:52;;;;;;;;;;;4.80;71.30;;;;;;5084237;28;19916;-64
2021/03/20 13:52:17;;;;;;;;;;;4.70;70.90;;;;;;5085402;28;19912;-65
2021/03/20 13:54:45;;;;;;;;;;;5.50;74.30;;;;;;5075457;28;19912;-64
2021/03/20 13:57:11;;;;;;;;;;;5.20;70.90;;;;;;5063390;28;19965;-64
2021/03/20 13:59:36;;;;;;;;;;;5.50;71.20;;;;;;5087080;28;19915;-64
2021/03/20 14:02:02;;;;;;;;;;;5.00;68.40;;;;;;5074880;28;19948;-65
2021/03/20 14:04:27;;;;;;;;;;;4.70;70.70;;;;;;5072563;28;19916;-65
2021/03/20 14:06:53;;;;;;;;;;;4.70;69.00;;;;;;5068745;28;19913;-64
2021/03/20 14:09:18;;;;;;;;;;;5.10;70.70;;;;;;5084762;28;20743;-64
2021/03/20 14:11:44;;;;;;;;;;;6.50;69.40;;;;;;5082100;28;20387;-64
2021/03/20 14:14:10;;;;;;;;;;;6.80;69.00;;;;;;5079957;28;20347;-65
2021/03/20 14:16:35;;;;;;;;;;;6.30;70.50;;;;;;5075831;28;19912;-65
2021/03/20 14:19:01;;;;;;;;;;;6.20;69.40;;;;;;5079591;28;20389;-64
2021/03/20 14:21:26;;;;;;;;;;;5.80;68.00;;;;;;5079976;28;19915;-65
2021/03/20 14:23:52;;;;;;;;;;;5.10;69.20;;;;;;5079274;28;19912;-64
2021/03/20 14:26:18;;;;;;;;;;;5.90;71.00;;;;;;5080761;28;19912;-65
2021/03/20 14:28:44;;;;;;;;;;;4.80;70.10;;;;;;5042287;28;20454;-64
2021/03/20 14:31:09;;;;;;;;;;;4.60;68.10;;;;;;5062528;28;19927;-65
2021/03/20 14:33:35;;;;;;;;;;;4.50;70.40;;;;;;5083233;28;19936;-64
2021/03/20 14:36:04;;;;;;;;;;;4.10;70.50;;;;;;5065973;28;19998;-65
2021/03/20 14:38:30;;;;;;;;;;;4.20;70.60;;;;;;5086983;28;19950;-65
2021/03/20 14:40:56;;;;;;;;;;;4.20;69.90;;;;;;5079335;28;19966;-64
2021/03/20 14:43:22;;;;;;;;;;;5.40;71.40;;;;;;5085427;28;20682;-64